createdAt,value
2023-04-16T00:07:37.034Z,34.55
2023-04-16T00:17:38.884Z,34.42
2023-04-16T00:27:40.718Z,23.95
2023-04-16T00:37:44.134Z,31.92
2023-04-16T00:47:46.208Z,25.52
2023-04-16T00:57:48.100Z,25.77
2023-04-16T01:07:51.079Z,26.67
2023-04-16T01:17:53.058Z,25.20
2023-04-16T01:27:54.906Z,20.77
2023-04-16T01:37:56.920Z,22.33
2023-04-16T01:47:59.526Z,21.63
2023-04-16T01:58:01.555Z,19.70
2023-04-16T02:08:07.559Z,17.92
2023-04-16T02:18:09.531Z,20.67
2023-04-16T02:28:13.112Z,18.80
2023-04-16T02:38:18.131Z,22.15
2023-04-16T02:48:20.116Z,22.10
2023-04-16T02:58:23.519Z,18.80
2023-04-16T03:08:25.607Z,22.55
2023-04-16T03:18:27.393Z,30.75
2023-04-16T03:28:29.230Z,37.05
2023-04-16T03:38:31.188Z,29.80
2023-04-16T03:48:34.394Z,24.58
2023-04-16T03:58:36.359Z,23.98
2023-04-16T04:08:39.336Z,24.95
2023-04-16T04:18:44.251Z,24.95
2023-04-16T04:28:46.901Z,18.15
2023-04-16T04:38:50.677Z,23.50
2023-04-16T04:48:52.594Z,21.25
2023-04-16T04:58:55.208Z,21.45
2023-04-16T05:08:57.562Z,18.30
2023-04-16T05:18:59.396Z,24.23
2023-04-16T05:29:01.222Z,19.42
2023-04-16T05:39:06.300Z,25.42
2023-04-16T05:49:08.421Z,23.33
2023-04-16T05:59:10.666Z,20.90
2023-04-16T06:09:12.820Z,23.02
2023-04-16T06:19:14.612Z,25.55
2023-04-16T06:29:16.415Z,23.02
2023-04-16T06:39:18.608Z,17.90
2023-04-16T06:49:21.539Z,8.38
2023-04-16T06:59:23.483Z,5.40
2023-04-16T07:09:25.376Z,3.97
2023-04-16T07:19:27.318Z,7.22
2023-04-16T07:29:29.159Z,8.68
2023-04-16T07:39:31.068Z,5.15
2023-04-16T07:49:32.954Z,4.25
2023-04-16T07:59:34.778Z,5.18
2023-04-16T08:09:37.207Z,5.88
2023-04-16T08:19:39.147Z,4.15
2023-04-16T08:29:40.972Z,5.43
2023-04-16T08:39:42.848Z,5.55
2023-04-16T08:49:45.644Z,4.40
2023-04-16T08:59:48.267Z,4.90
2023-04-16T09:09:53.286Z,4.75
2023-04-16T09:19:55.112Z,5.50
2023-04-16T09:29:57.065Z,5.28
2023-04-16T09:40:03.801Z,5.00
2023-04-16T09:50:06.288Z,3.35
2023-04-16T10:00:10.219Z,4.07
2023-04-16T10:10:12.389Z,8.13
2023-04-16T10:20:17.293Z,6.43
2023-04-16T10:30:19.640Z,3.75
2023-04-16T10:40:26.892Z,4.13
2023-04-16T10:50:35.979Z,3.10
2023-04-16T11:01:01.384Z,4.05
2023-04-16T11:11:05.735Z,4.65
2023-04-16T11:21:11.531Z,8.02
2023-04-16T11:31:13.480Z,5.30
2023-04-16T11:41:20.459Z,4.82
2023-04-16T11:51:22.442Z,5.45
2023-04-16T12:01:24.370Z,6.20
2023-04-16T12:11:40.299Z,7.93
2023-04-16T12:21:47.188Z,7.43
2023-04-16T12:31:50.574Z,6.85
2023-04-16T12:41:52.361Z,5.18
2023-04-16T12:51:54.183Z,6.07
2023-04-16T13:01:56.150Z,5.07
2023-04-16T13:11:58.077Z,9.05
2023-04-16T13:21:59.955Z,6.47
2023-04-16T13:32:02.154Z,5.63
2023-04-16T13:42:04.099Z,6.03
2023-04-16T13:52:05.893Z,4.78
2023-04-16T14:02:08.283Z,5.05
2023-04-16T14:12:10.344Z,4.03
2023-04-16T14:22:12.196Z,5.57
2023-04-16T14:32:14.698Z,4.38
2023-04-16T14:42:16.591Z,3.45
2023-04-16T14:52:18.409Z,4.68
2023-04-16T15:02:20.389Z,6.03
2023-04-16T15:12:22.400Z,4.13
2023-04-16T15:22:24.300Z,5.38
2023-04-16T15:32:26.202Z,7.07
2023-04-16T15:42:28.087Z,5.90
2023-04-16T15:52:30.285Z,8.45
2023-04-16T16:02:32.397Z,7.90
2023-04-16T16:12:35.907Z,8.65
2023-04-16T16:22:37.780Z,6.65
2023-04-16T16:32:39.616Z,8.00
2023-04-16T16:42:41.625Z,6.15
2023-04-16T16:52:44.443Z,7.43
2023-04-16T17:02:46.790Z,7.18
2023-04-16T17:12:49.676Z,6.60
2023-04-16T17:22:51.538Z,6.53
2023-04-16T17:32:53.485Z,6.95
2023-04-16T17:42:55.354Z,7.15
2023-04-16T17:52:57.204Z,7.47
2023-04-16T18:02:59.538Z,9.15
2023-04-16T18:13:01.529Z,10.15
2023-04-16T18:23:03.473Z,8.95
2023-04-16T18:43:10.078Z,10.10
2023-04-16T18:53:11.992Z,9.48
2023-04-16T19:03:13.826Z,10.35
2023-04-16T19:13:16.372Z,9.13
2023-04-16T19:23:18.227Z,9.60
2023-04-16T19:33:20.420Z,10.13
2023-04-16T19:43:22.256Z,10.68
2023-04-16T19:53:24.024Z,9.60
2023-04-16T20:03:25.986Z,10.07
2023-04-16T20:13:27.860Z,10.20
2023-04-16T20:23:29.667Z,8.38
2023-04-16T20:33:31.566Z,12.00
2023-04-16T20:43:33.523Z,12.50
2023-04-16T20:53:36.353Z,11.40
2023-04-16T21:03:38.494Z,11.45
2023-04-16T21:13:40.508Z,9.43
2023-04-16T21:23:42.367Z,14.73
2023-04-16T21:33:44.124Z,12.30
2023-04-16T21:43:46.054Z,12.88
2023-04-16T21:53:47.940Z,13.40
2023-04-16T22:03:49.947Z,13.68
2023-04-16T22:13:51.906Z,12.63
2023-04-16T22:23:53.740Z,13.43
2023-04-16T22:33:55.564Z,13.20
2023-04-16T22:43:57.411Z,14.70
2023-04-16T22:53:59.351Z,13.85
2023-04-16T23:04:01.260Z,16.13
2023-04-16T23:14:03.126Z,17.67
2023-04-16T23:24:05.621Z,23.13
2023-04-16T23:34:07.493Z,17.02
2023-04-16T23:44:09.392Z,17.67
2023-04-16T23:54:11.819Z,18.40
